Time;durP1;ratioP1;P1;durP2;ratioP2;P2;SDS_P1;SDS_P2;PMS_P1;PMS_P2;Temp;Humidity;BMP_temperature;BMP_pressure;BME280_temperature;BME280_humidity;BME280_pressure;Samples;Min_cycle;Max_cycle;Signal;HPM_P1;HPM_P2
2022/08/09 00:02:16;;;;;;;4.60;3.40;;;20.40;1.00;;;;;;5083180;28;20458;-79
2022/08/09 00:04:46;;;;;;;4.40;3.60;;;20.50;1.00;;;;;;5086447;27;20453;-79
2022/08/09 00:07:13;;;;;;;4.67;4.00;;;20.50;1.00;;;;;;5087344;28;20473;-79
2022/08/09 00:09:55;;;;;;;4.50;4.10;;;20.60;1.00;;;;;;5084905;27;20466;-78
2022/08/09 00:12:23;;;;;;;7.63;4.40;;;20.60;1.00;;;;;;5085794;27;20457;-79
2022/08/09 00:14:53;;;;;;;4.20;3.83;;;20.60;1.00;;;;;;5079696;27;20837;-79
2022/08/09 00:17:25;;;;;;;4.13;3.73;;;20.70;1.00;;;;;;5088575;28;20452;-79
2022/08/09 00:19:52;;;;;;;4.67;4.27;;;20.70;1.00;;;;;;5087946;28;20474;-80
2022/08/09 00:22:18;;;;;;;4.77;4.00;;;20.70;1.00;;;;;;5087346;27;20455;-78
2022/08/09 00:24:46;;;;;;;4.33;3.93;;;20.80;1.00;;;;;;5088669;28;20525;-79
2022/08/09 00:27:23;;;;;;;5.07;3.83;;;20.70;1.00;;;;;;5083067;28;20466;-79
2022/08/09 00:29:57;;;;;;;4.27;3.87;;;20.80;1.00;;;;;;5088398;28;20440;-78
2022/08/09 00:32:24;;;;;;;4.57;4.17;;;20.70;1.00;;;;;;5083258;27;20486;-79
2022/08/09 00:34:50;;;;;;;4.63;4.23;;;20.70;1.00;;;;;;5084452;28;20458;-79
2022/08/09 00:37:20;;;;;;;5.53;3.97;;;20.70;1.00;;;;;;5080389;28;21097;-78
2022/08/09 00:39:47;;;;;;;3.90;3.60;;;20.70;1.00;;;;;;5084495;28;20478;-80
2022/08/09 00:42:16;;;;;;;3.83;3.50;;;20.70;1.00;;;;;;5082779;28;20470;-78
2022/08/09 00:44:44;;;;;;;4.23;3.83;;;20.70;1.00;;;;;;5084579;28;20423;-79
2022/08/09 00:47:11;;;;;;;6.00;4.07;;;20.70;1.00;;;;;;5081593;28;20455;-79
2022/08/09 00:49:42;;;;;;;4.13;3.77;;;20.70;1.00;;;;;;5089651;27;20462;-79
2022/08/09 00:52:09;;;;;;;4.07;3.53;;;20.80;1.00;;;;;;5085250;28;20455;-79
2022/08/09 00:54:42;;;;;;;3.73;3.30;;;20.70;1.00;;;;;;5082743;27;20481;-79
2022/08/09 00:57:09;;;;;;;4.60;4.20;;;20.70;1.00;;;;;;5080264;28;20474;-79
2022/08/09 00:59:45;;;;;;;4.40;3.87;;;20.70;1.00;;;;;;5083920;28;20907;-77
2022/08/09 01:02:12;;;;;;;4.63;3.50;;;20.70;1.00;;;;;;5080271;28;20443;-78
2022/08/09 01:04:53;;;;;;;4.93;4.43;;;20.80;1.00;;;;;;5086712;28;20467;-78
2022/08/09 01:07:31;;;;;;;5.87;4.03;;;20.70;1.00;;;;;;5082136;28;20411;-77
2022/08/09 01:10:08;;;;;;;3.73;3.43;;;20.80;1.00;;;;;;5085185;27;20466;-78
2022/08/09 01:12:44;;;;;;;3.67;3.30;;;20.80;1.00;;;;;;5082774;28;20536;-77
2022/08/09 01:15:16;;;;;;;5.10;4.10;;;20.80;1.00;;;;;;5079898;28;20515;-78
2022/08/09 01:17:49;;;;;;;4.13;3.80;;;20.80;1.00;;;;;;5087737;28;20468;-77
2022/08/09 01:20:24;;;;;;;5.37;3.97;;;20.70;1.00;;;;;;5080943;28;21041;-77
2022/08/09 01:23:08;;;;;;;3.73;3.43;;;20.70;1.00;;;;;;5086444;28;20529;-78
2022/08/09 01:25:51;;;;;;;4.50;4.10;;;20.70;1.00;;;;;;5080706;28;20609;-77
2022/08/09 01:28:25;;;;;;;5.43;4.67;;;20.70;1.00;;;;;;5084430;28;20466;-77
2022/08/09 01:30:55;;;;;;;4.30;3.97;;;20.70;1.00;;;;;;5085360;28;20458;-77
2022/08/09 01:33:27;;;;;;;4.37;4.00;;;20.80;1.00;;;;;;5081894;28;20457;-78
2022/08/09 01:36:03;;;;;;;4.40;3.97;;;20.80;1.00;;;;;;5086820;28;20530;-78
2022/08/09 01:38:35;;;;;;;5.10;4.60;;;20.70;1.00;;;;;;5086476;28;20466;-79
2022/08/09 01:41:11;;;;;;;5.40;4.10;;;20.80;1.00;;;;;;5082813;28;20526;-78
2022/08/09 01:43:51;;;;;;;6.13;4.87;;;20.80;1.00;;;;;;5086370;28;20529;-78
2022/08/09 01:46:25;;;;;;;4.47;4.07;;;20.70;1.00;;;;;;5079183;28;20462;-78
2022/08/09 01:48:53;;;;;;;4.10;3.70;;;20.70;1.00;;;;;;5080405;28;21325;-78
2022/08/09 01:51:25;;;;;;;6.00;4.27;;;20.60;1.00;;;;;;5081937;28;20445;-78
2022/08/09 01:53:55;;;;;;;3.90;3.50;;;20.60;1.00;;;;;;5077949;28;20541;-78
2022/08/09 01:56:23;;;;;;;5.40;4.90;;;20.60;1.00;;;;;;5078675;28;20470;-78
2022/08/09 01:58:56;;;;;;;5.20;4.60;;;20.60;1.00;;;;;;5082193;28;20420;-78
2022/08/09 02:01:26;;;;;;;6.67;4.80;;;20.60;1.00;;;;;;5080084;28;20557;-79
2022/08/09 02:03:56;;;;;;;5.00;4.37;;;20.50;1.00;;;;;;5080605;28;20466;-79
2022/08/09 02:09:10;;;;;;;6.30;4.70;;;20.30;1.00;;;;;;5080286;28;20559;-79
2022/08/09 02:11:37;;;;;;;4.00;3.70;;;20.30;1.00;;;;;;5082662;28;20481;-78
2022/08/09 02:14:15;;;;;;;4.37;3.97;;;20.30;1.00;;;;;;5084270;28;20452;-78
2022/08/09 02:16:42;;;;;;;6.43;5.43;;;20.30;1.00;;;;;;5082193;28;21055;-77
2022/08/09 02:19:14;;;;;;;4.70;4.30;;;20.30;1.00;;;;;;5081893;28;20461;-79
2022/08/09 02:21:54;;;;;;;3.97;3.60;;;20.30;1.00;;;;;;5083466;28;20927;-78
2022/08/09 02:24:36;;;;;;;4.80;4.40;;;20.20;1.00;;;;;;5066260;28;20542;-79
2022/08/09 02:27:09;;;;;;;7.73;4.97;;;20.30;1.00;;;;;;5071212;28;20422;-79
2022/08/09 02:29:45;;;;;;;5.00;4.60;;;20.30;1.00;;;;;;5084802;28;20446;-79
2022/08/09 02:32:14;;;;;;;5.03;4.00;;;20.30;1.00;;;;;;5088184;27;20992;-78
2022/08/09 02:34:48;;;;;;;4.50;4.10;;;20.30;1.00;;;;;;5087774;28;20463;-79
2022/08/09 02:37:19;;;;;;;4.50;4.10;;;20.30;1.00;;;;;;5082873;28;20465;-79
2022/08/09 02:39:50;;;;;;;5.43;5.00;;;20.30;1.00;;;;;;5086208;28;20466;-78
2022/08/09 02:42:27;;;;;;;7.07;5.10;;;20.30;1.00;;;;;;5084158;28;20564;-79
2022/08/09 02:45:03;;;;;;;5.73;5.10;;;20.40;1.00;;;;;;5084611;28;20467;-79
2022/08/09 02:47:32;;;;;;;5.40;4.80;;;20.40;1.00;;;;;;5087643;28;20482;-77
2022/08/09 02:50:05;;;;;;;5.10;4.43;;;20.50;1.00;;;;;;5087246;28;20967;-78
2022/08/09 02:52:38;;;;;;;7.07;4.80;;;20.50;1.00;;;;;;5088047;28;20475;-78
2022/08/09 02:55:08;;;;;;;9.27;5.10;;;20.40;1.00;;;;;;5088904;27;20569;-78
2022/08/09 02:57:37;;;;;;;7.27;5.57;;;20.40;1.00;;;;;;5085784;28;21951;-77
2022/08/09 03:00:09;;;;;;;5.27;4.77;;;20.40;1.00;;;;;;5087701;28;20439;-79
2022/08/09 03:02:39;;;;;;;6.20;4.67;;;20.40;1.00;;;;;;5088228;28;20542;-77
2022/08/09 03:05:11;;;;;;;5.53;5.03;;;20.40;1.00;;;;;;5084994;28;20477;-79
2022/08/09 03:07:44;;;;;;;5.87;5.20;;;20.40;1.00;;;;;;5084076;28;20467;-78
2022/08/09 03:10:12;;;;;;;7.67;4.90;;;20.40;1.00;;;;;;5101486;27;20542;-79
2022/08/09 03:12:40;;;;;;;9.50;4.70;;;20.40;1.00;;;;;;5087619;28;20508;-80
2022/08/09 03:15:14;;;;;;;7.37;5.30;;;20.40;1.00;;;;;;5088151;27;20467;-79
2022/08/09 03:17:45;;;;;;;5.50;5.00;;;20.40;1.00;;;;;;5092838;28;20435;-80
2022/08/09 03:20:15;;;;;;;7.87;4.83;;;20.30;1.00;;;;;;5077521;28;20513;-79
2022/08/09 03:22:46;;;;;;;20.93;17.90;;;20.40;1.00;;;;;;5086013;27;20423;-78
2022/08/09 03:25:13;;;;;;;11.00;6.20;;;20.30;1.00;;;;;;5081538;28;20487;-79
2022/08/09 03:27:48;;;;;;;5.63;4.93;;;20.30;1.00;;;;;;5080568;27;20430;-77
2022/08/09 03:30:17;;;;;;;7.10;5.30;;;20.40;1.00;;;;;;5086782;27;20493;-78
2022/08/09 03:32:45;;;;;;;9.83;5.60;;;20.40;1.00;;;;;;5085176;28;20614;-78
2022/08/09 03:35:12;;;;;;;7.60;6.50;;;20.40;1.00;;;;;;5080211;28;20836;-78
2022/08/09 03:37:44;;;;;;;5.43;4.93;;;20.30;1.00;;;;;;5086756;28;20826;-79
2022/08/09 03:40:12;;;;;;;6.77;4.47;;;20.30;1.00;;;;;;5084229;28;20645;-79
2022/08/09 03:42:43;;;;;;;6.33;5.00;;;20.20;1.00;;;;;;5085819;28;20486;-78
2022/08/09 03:45:10;;;;;;;10.13;5.43;;;20.30;1.00;;;;;;5081769;28;20535;-78
2022/08/09 03:47:40;;;;;;;5.40;4.60;;;20.30;1.00;;;;;;5081237;28;20585;-78
2022/08/09 03:50:11;;;;;;;46.70;9.20;;;20.30;1.00;;;;;;5081496;28;20559;-79
2022/08/09 03:52:43;;;;;;;10.87;4.93;;;20.20;1.00;;;;;;5084725;28;20511;-79
2022/08/09 03:55:12;;;;;;;12.53;6.63;;;20.20;1.00;;;;;;5087295;28;20456;-79
2022/08/09 03:57:44;;;;;;;7.63;5.33;;;20.10;1.00;;;;;;5086979;28;20536;-79
2022/08/09 04:00:12;;;;;;;6.10;5.50;;;20.10;1.00;;;;;;5081304;28;20501;-79
2022/08/09 04:02:45;;;;;;;8.33;5.70;;;20.20;1.00;;;;;;5077149;27;20471;-79
2022/08/09 04:05:13;;;;;;;9.30;5.33;;;20.20;1.00;;;;;;5086841;27;20458;-77
2022/08/09 04:07:46;;;;;;;7.43;4.80;;;20.20;1.00;;;;;;5084260;28;20550;-79
2022/08/09 04:10:14;;;;;;;5.27;4.77;;;20.20;1.00;;;;;;5085681;28;20467;-80
2022/08/09 04:12:50;;;;;;;7.27;5.27;;;20.20;1.00;;;;;;5095883;28;20467;-78
2022/08/09 04:15:20;;;;;;;6.23;5.20;;;20.20;1.00;;;;;;5075221;28;20459;-79
2022/08/09 04:17:49;;;;;;;5.63;5.00;;;20.20;1.00;;;;;;5088361;28;20470;-80
2022/08/09 04:20:17;;;;;;;5.80;4.70;;;20.20;1.00;;;;;;5083396;28;20451;-78
2022/08/09 04:22:48;;;;;;;7.67;6.07;;;20.30;1.00;;;;;;5089410;28;20507;-78
2022/08/09 04:25:16;;;;;;;6.73;5.30;;;20.30;1.00;;;;;;5080002;28;20427;-78
2022/08/09 04:27:43;;;;;;;6.33;5.33;;;20.20;1.00;;;;;;5082943;28;20463;-79
2022/08/09 04:30:15;;;;;;;8.80;5.43;;;20.20;1.00;;;;;;5075211;28;20422;-79
2022/08/09 04:32:42;;;;;;;8.43;6.60;;;20.40;1.00;;;;;;5077025;28;20491;-79
2022/08/09 04:35:13;;;;;;;14.57;6.27;;;20.30;1.00;;;;;;5081289;28;20827;-80
2022/08/09 04:37:42;;;;;;;27.37;7.83;;;20.30;1.00;;;;;;5081696;28;20547;-80
2022/08/09 04:40:14;;;;;;;5.97;5.40;;;20.30;1.00;;;;;;5082736;28;20469;-79
2022/08/09 04:42:41;;;;;;;10.40;5.60;;;20.30;1.00;;;;;;5083637;28;20547;-78
2022/08/09 04:45:09;;;;;;;8.10;5.63;;;20.30;1.00;;;;;;5081139;28;20467;-79
2022/08/09 04:47:36;;;;;;;6.10;5.50;;;20.40;1.00;;;;;;5084723;28;20424;-79
2022/08/09 04:50:03;;;;;;;6.57;5.07;;;20.40;1.00;;;;;;5083669;28;20511;-79
2022/08/09 04:52:36;;;;;;;6.73;5.97;;;20.40;1.00;;;;;;5094562;28;20472;-78
2022/08/09 04:55:03;;;;;;;7.00;5.00;;;20.40;1.00;;;;;;5086675;28;20485;-78
2022/08/09 04:57:35;;;;;;;10.63;4.80;;;20.50;1.00;;;;;;5084992;28;20583;-77
2022/08/09 05:00:04;;;;;;;6.00;5.40;;;20.50;1.00;;;;;;5089396;28;20521;-78
2022/08/09 05:02:36;;;;;;;7.70;5.27;;;20.50;1.00;;;;;;5089613;27;20569;-79
2022/08/09 05:05:03;;;;;;;6.07;5.00;;;20.50;1.00;;;;;;5087171;28;20483;-78
2022/08/09 05:07:36;;;;;;;7.20;5.43;;;20.60;1.00;;;;;;5084975;28;20901;-79
2022/08/09 05:10:04;;;;;;;5.53;4.63;;;20.60;1.00;;;;;;5087911;28;20477;-79
2022/08/09 05:12:41;;;;;;;5.00;4.50;;;20.60;1.00;;;;;;5086924;28;20471;-79
2022/08/09 05:15:09;;;;;;;9.77;5.17;;;20.60;1.00;;;;;;5084377;28;20443;-79
2022/08/09 05:17:36;;;;;;;8.27;5.80;;;20.60;1.00;;;;;;5083183;28;20491;-79
2022/08/09 05:20:04;;;;;;;6.80;4.93;;;20.60;1.00;;;;;;5083008;28;20463;-79
2022/08/09 05:22:38;;;;;;;5.90;5.33;;;20.70;1.00;;;;;;5084609;27;20529;-82
2022/08/09 05:25:06;;;;;;;5.10;4.60;;;20.70;1.00;;;;;;5088224;27;20493;-85
2022/08/09 05:27:57;;;;;;;6.10;5.23;;;20.80;1.00;;;;;;5081826;28;20430;-83
2022/08/09 05:30:24;;;;;;;8.50;5.80;;;20.80;1.00;;;;;;5083417;28;20455;-80
2022/08/09 05:32:56;;;;;;;9.80;6.03;;;20.80;1.00;;;;;;5087713;28;20467;-82
2022/08/09 05:35:27;;;;;;;6.33;5.67;;;20.80;1.00;;;;;;5066440;28;20501;-80
2022/08/09 05:37:56;;;;;;;6.17;5.57;;;20.80;1.00;;;;;;5086897;28;20473;-72
2022/08/09 05:40:27;;;;;;;5.50;5.00;;;20.90;1.00;;;;;;5077401;28;20410;-78
2022/08/09 05:42:56;;;;;;;7.77;6.40;;;21.00;1.00;;;;;;5082139;28;20481;-78
2022/08/09 05:45:28;;;;;;;9.60;6.50;;;21.10;1.00;;;;;;5082847;27;21175;-74
2022/08/09 05:47:54;;;;;;;7.43;5.40;;;21.30;1.00;;;;;;5079524;27;20458;-72
2022/08/09 05:50:27;;;;;;;6.53;5.93;;;21.40;1.00;;;;;;5068321;27;20471;-72
2022/08/09 05:52:58;;;;;;;7.03;5.47;;;21.50;1.00;;;;;;5077350;28;20436;-74
2022/08/09 05:55:26;;;;;;;6.03;4.93;;;21.60;1.00;;;;;;5077175;28;21245;-76
2022/08/09 05:57:56;;;;;;;7.37;5.47;;;21.70;1.00;;;;;;5083764;28;20472;-75
2022/08/09 06:00:23;;;;;;;4.90;4.50;;;21.70;1.00;;;;;;5080073;28;20565;-73
2022/08/09 06:02:53;;;;;;;7.23;5.57;;;21.70;1.00;;;;;;5084476;28;20509;-79
2022/08/09 06:05:20;;;;;;;7.57;5.50;;;21.90;1.00;;;;;;5088148;28;20516;-79
2022/08/09 06:07:47;;;;;;;8.23;5.83;;;21.90;1.00;;;;;;5083753;28;20418;-79
2022/08/09 06:10:36;;;;;;;8.23;6.30;;;22.00;1.00;;;;;;5086677;28;20545;-78
2022/08/09 06:13:09;;;;;;;8.50;5.20;;;22.10;1.00;;;;;;5093463;28;20498;-79
2022/08/09 06:15:39;;;;;;;6.97;5.40;;;22.10;1.00;;;;;;5089099;27;20848;-81
2022/08/09 06:18:08;;;;;;;7.13;5.70;;;22.20;1.00;;;;;;5092696;27;20437;-79
2022/08/09 06:20:38;;;;;;;5.83;5.20;;;22.20;1.00;;;;;;5088054;28;21070;-78
2022/08/09 06:23:07;;;;;;;6.93;6.33;;;22.20;1.00;;;;;;5086841;28;20502;-80
2022/08/09 06:25:38;;;;;;;10.87;6.10;;;22.10;1.00;;;;;;5080383;28;20485;-80
2022/08/09 06:28:07;;;;;;;6.77;5.20;;;22.20;1.00;;;;;;5098213;28;20433;-79
2022/08/09 06:30:36;;;;;;;8.37;5.60;;;22.20;1.00;;;;;;5090500;28;20444;-79
2022/08/09 06:33:08;;;;;;;7.77;5.30;;;22.20;1.00;;;;;;5090804;27;20422;-79
2022/08/09 06:35:38;;;;;;;8.33;6.80;;;22.30;1.00;;;;;;5096252;27;20456;-79
2022/08/09 06:38:08;;;;;;;6.83;5.00;;;22.40;1.00;;;;;;5089660;28;20427;-79
2022/08/09 06:40:36;;;;;;;5.40;4.37;;;22.40;1.00;;;;;;5084867;27;20485;-80
2022/08/09 06:43:07;;;;;;;5.33;4.60;;;22.50;1.00;;;;;;5086694;27;20439;-79
2022/08/09 06:45:36;;;;;;;11.23;5.97;;;22.50;1.00;;;;;;5083587;27;20446;-79
2022/08/09 06:48:07;;;;;;;6.90;6.30;;;22.60;1.00;;;;;;5092594;27;20434;-78
2022/08/09 06:50:34;;;;;;;8.57;5.27;;;22.80;1.00;;;;;;5078425;28;20451;-78
2022/08/09 06:53:01;;;;;;;5.67;4.83;;;22.90;1.00;;;;;;5085835;28;20473;-79
2022/08/09 06:55:30;;;;;;;8.37;6.90;;;22.90;1.00;;;;;;5088202;27;20450;-79
2022/08/09 06:58:00;;;;;;;5.20;4.70;;;23.00;1.00;;;;;;5090854;28;20427;-78
2022/08/09 07:00:28;;;;;;;6.47;5.00;;;23.10;1.00;;;;;;5080568;28;20896;-79
2022/08/09 07:02:58;;;;;;;8.20;4.80;;;23.10;1.00;;;;;;5086714;28;20446;-79
2022/08/09 07:05:26;;;;;;;6.30;5.23;;;23.00;1.00;;;;;;5076963;27;20456;-78
2022/08/09 07:07:57;;;;;;;5.50;4.90;;;23.00;1.00;;;;;;5081622;28;20440;-80
2022/08/09 07:10:24;;;;;;;4.90;4.40;;;23.00;1.00;;;;;;5081978;28;20463;-81
2022/08/09 07:12:58;;;;;;;9.23;4.50;;;23.00;1.00;;;;;;5086268;28;20474;-79
2022/08/09 07:15:27;;;;;;;13.60;5.03;;;23.00;1.00;;;;;;5084020;28;20538;-77
2022/08/09 07:17:58;;;;;;;6.30;4.50;;;23.00;1.00;;;;;;5084612;28;20491;-78
2022/08/09 07:20:25;;;;;;;6.50;4.87;;;23.00;1.00;;;;;;5077212;27;20463;-78
2022/08/09 07:22:59;;;;;;;4.80;3.63;;;23.00;1.00;;;;;;5081608;28;20470;-78
2022/08/09 07:25:26;;;;;;;9.47;4.37;;;23.10;1.00;;;;;;5087524;28;20451;-78
2022/08/09 07:28:00;;;;;;;5.83;4.40;;;23.20;1.00;;;;;;5086654;28;20439;-80
2022/08/09 07:30:29;;;;;;;6.47;4.57;;;23.40;1.00;;;;;;5083239;28;20462;-81
2022/08/09 07:32:58;;;;;;;5.50;4.47;;;23.50;1.00;;;;;;5086047;28;20450;-78
2022/08/09 07:35:25;;;;;;;7.00;4.70;;;23.60;1.00;;;;;;5080169;27;20450;-78
2022/08/09 07:37:57;;;;;;;4.30;3.90;;;23.70;1.00;;;;;;5080424;27;20466;-78
2022/08/09 07:40:24;;;;;;;4.73;4.23;;;23.60;1.00;;;;;;5083253;28;20471;-78
2022/08/09 07:42:58;;;;;;;5.00;4.50;;;23.60;1.00;;;;;;5083187;28;20487;-79
2022/08/09 07:45:31;;;;;;;5.57;3.87;;;23.60;1.00;;;;;;5085374;28;20514;-79
2022/08/09 07:48:00;;;;;;;4.87;4.10;;;23.80;1.00;;;;;;5071286;28;20443;-78
2022/08/09 07:50:29;;;;;;;7.33;4.10;;;23.80;1.00;;;;;;5086660;28;20508;-78
2022/08/09 07:52:58;;;;;;;4.00;3.57;;;24.00;1.00;;;;;;5083442;28;20446;-79
2022/08/09 07:55:25;;;;;;;4.03;3.73;;;24.00;1.00;;;;;;5085498;27;20550;-78
2022/08/09 07:57:56;;;;;;;8.23;4.07;;;24.00;1.00;;;;;;5084983;28;20486;-78
2022/08/09 08:00:24;;;;;;;5.57;4.00;;;24.00;1.00;;;;;;5086243;28;20475;-78
2022/08/09 08:02:58;;;;;;;4.13;3.70;;;24.20;1.00;;;;;;5085234;28;20502;-79
2022/08/09 08:05:25;;;;;;;4.67;3.57;;;24.30;1.00;;;;;;5086687;28;20475;-78
2022/08/09 08:07:56;;;;;;;4.23;3.63;;;24.30;1.00;;;;;;5083200;28;20458;-77
2022/08/09 08:10:23;;;;;;;4.77;3.50;;;24.50;1.00;;;;;;5084846;27;20448;-80
2022/08/09 08:12:51;;;;;;;5.50;3.50;;;24.70;1.00;;;;;;5085038;28;20529;-79
2022/08/09 08:15:19;;;;;;;6.23;3.67;;;24.70;1.00;;;;;;5090175;27;20477;-77
2022/08/09 08:17:50;;;;;;;5.30;3.43;;;24.80;1.00;;;;;;5075311;28;20460;-79
2022/08/09 08:20:23;;;;;;;3.90;3.57;;;24.90;1.00;;;;;;5089307;28;20502;-78
2022/08/09 08:22:50;;;;;;;4.70;3.63;;;24.90;1.00;;;;;;5085433;28;20528;-81
2022/08/09 08:25:18;;;;;;;3.47;3.17;;;25.10;1.00;;;;;;5090910;28;20494;-82
2022/08/09 08:27:48;;;;;;;4.23;3.87;;;25.30;1.00;;;;;;5086553;28;20427;-78
2022/08/09 08:30:17;;;;;;;3.90;2.97;;;25.50;1.00;;;;;;5088859;28;20530;-79
2022/08/09 08:32:51;;;;;;;3.90;3.60;;;25.60;1.00;;;;;;5066356;28;20504;-79
2022/08/09 08:35:18;;;;;;;4.73;3.30;;;25.70;1.00;;;;;;5071041;27;20538;-79
2022/08/09 08:37:49;;;;;;;7.80;3.80;;;25.70;1.00;;;;;;5079117;27;20459;-80
2022/08/09 08:40:16;;;;;;;4.27;3.30;;;25.90;1.00;;;;;;5075464;28;20545;-81
2022/08/09 08:42:44;;;;;;;5.90;3.90;;;26.00;1.00;;;;;;5086358;27;20471;-78
2022/08/09 08:45:15;;;;;;;4.90;3.40;;;26.10;1.00;;;;;;5083645;28;20973;-80
2022/08/09 08:47:45;;;;;;;4.33;3.80;;;26.10;1.00;;;;;;5080951;28;20458;-80
2022/08/09 08:50:18;;;;;;;4.00;3.60;;;26.20;1.00;;;;;;5089082;28;20475;-80
2022/08/09 08:52:51;;;;;;;7.70;4.50;;;26.10;1.00;;;;;;5084602;27;20478;-80
2022/08/09 08:55:21;;;;;;;7.10;3.37;;;26.10;1.00;;;;;;5085657;28;20445;-79
2022/08/09 08:57:49;;;;;;;4.43;3.20;;;26.10;1.00;;;;;;5087880;28;20504;-81
2022/08/09 09:00:18;;;;;;;4.27;3.80;;;26.20;1.00;;;;;;5083173;28;20471;-79
2022/08/09 09:02:47;;;;;;;3.60;3.27;;;26.20;1.00;;;;;;5086063;27;20439;-79
2022/08/09 09:05:22;;;;;;;5.63;3.60;;;26.20;1.00;;;;;;5084962;27;20468;-79
2022/08/09 09:07:52;;;;;;;7.30;3.50;;;26.20;1.00;;;;;;5079899;27;20454;-79
2022/08/09 09:10:21;;;;;;;3.80;3.50;;;26.40;1.00;;;;;;5071665;28;20748;-78
2022/08/09 09:12:49;;;;;;;5.20;4.70;;;26.50;1.00;;;;;;5081685;27;20487;-79
2022/08/09 09:15:19;;;;;;;5.40;3.63;;;26.50;1.00;;;;;;5083267;28;20489;-80
2022/08/09 09:17:46;;;;;;;7.60;4.90;;;26.70;1.00;;;;;;5087484;27;20543;-79
2022/08/09 09:20:18;;;;;;;3.17;2.97;;;26.80;1.00;;;;;;5089473;28;20481;-79
2022/08/09 09:22:59;;;;;;;5.00;3.47;;;26.80;1.00;;;;;;5086384;27;20509;-78
2022/08/09 09:25:40;;;;;;;6.97;3.57;;;27.00;1.00;;;;;;5090114;28;20420;-80
2022/08/09 09:28:08;;;;;;;3.60;3.40;;;27.10;1.00;;;;;;5088256;27;20458;-79
2022/08/09 09:30:53;;;;;;;3.27;2.80;;;27.20;1.00;;;;;;5089690;28;21288;-80
2022/08/09 09:33:20;;;;;;;4.63;3.20;;;27.20;1.00;;;;;;5083143;27;20443;-79
2022/08/09 09:35:58;;;;;;;4.10;3.30;;;27.60;1.00;;;;;;5085674;28;20498;-78
2022/08/09 09:38:43;;;;;;;4.00;2.80;;;28.30;1.00;;;;;;5091174;28;20461;-79
2022/08/09 09:41:11;;;;;;;2.90;2.57;;;29.60;1.00;;;;;;5088562;28;20971;-78
2022/08/09 09:43:40;;;;;;;4.80;3.27;;;31.00;1.00;;;;;;5085202;28;20426;-78
2022/08/09 09:46:07;;;;;;;3.30;2.67;;;32.50;1.00;;;;;;5091291;27;20494;-78
2022/08/09 09:49:00;;;;;;;3.27;2.97;;;33.50;1.00;;;;;;5090722;28;20450;-81
2022/08/09 09:51:28;;;;;;;2.50;2.30;;;34.50;1.00;;;;;;5085860;28;20541;-80
2022/08/09 09:54:08;;;;;;;5.40;3.40;;;35.40;1.00;;;;;;5088354;28;20446;-79
2022/08/09 09:56:42;;;;;;;3.30;2.70;;;35.60;1.00;;;;;;5093121;28;20450;-80
2022/08/09 09:59:10;;;;;;;5.00;3.17;;;35.70;1.00;;;;;;5108357;27;20470;-78
2022/08/09 10:01:45;;;;;;;3.50;3.20;;;36.20;1.00;;;;;;5094848;27;20446;-78
2022/08/09 10:04:20;;;;;;;5.53;4.33;;;36.60;1.00;;;;;;5089450;27;20434;-79
2022/08/09 10:06:48;;;;;;;3.97;3.43;;;37.40;1.00;;;;;;5090301;28;20482;-79
2022/08/09 10:09:20;;;;;;;4.93;3.27;;;38.00;1.00;;;;;;5097890;27;20470;-80
2022/08/09 10:11:47;;;;;;;3.30;2.90;;;38.20;1.00;;;;;;5090163;27;20479;-78
2022/08/09 10:14:22;;;;;;;7.33;4.90;;;38.40;1.00;;;;;;5089505;28;20547;-79
2022/08/09 10:16:49;;;;;;;4.37;3.27;;;38.70;1.00;;;;;;5094307;27;20508;-78
2022/08/09 10:19:20;;;;;;;5.00;3.20;;;38.40;1.00;;;;;;5088932;28;20437;-81
2022/08/09 10:21:48;;;;;;;5.70;2.80;;;38.80;1.00;;;;;;5086804;28;20537;-79
2022/08/09 10:24:23;;;;;;;4.60;2.67;;;39.00;1.00;;;;;;5092911;27;20461;-80
2022/08/09 10:26:55;;;;;;;3.10;2.73;;;39.10;1.00;;;;;;5096233;28;21343;-79
2022/08/09 10:29:23;;;;;;;16.47;15.30;;;38.90;1.00;;;;;;5091888;27;20454;-79
2022/08/09 10:31:53;;;;;;;2.83;2.63;;;38.90;1.00;;;;;;5088501;27;20486;-79
2022/08/09 10:34:21;;;;;;;7.83;5.00;;;38.60;1.00;;;;;;5087808;27;20449;-79
2022/08/09 10:36:55;;;;;;;4.27;3.30;;;38.90;1.00;;;;;;5083827;27;20455;-80
2022/08/09 10:39:29;;;;;;;2.83;2.63;;;38.90;1.00;;;;;;5097130;27;20453;-77
2022/08/09 10:41:56;;;;;;;4.10;3.40;;;39.20;1.00;;;;;;5086341;28;20455;-78
2022/08/09 10:44:30;;;;;;;5.03;4.20;;;39.60;1.00;;;;;;5082897;27;21070;-79
2022/08/09 10:47:22;;;;;;;6.17;3.33;;;39.70;1.00;;;;;;5084196;27;20490;-80
2022/08/09 10:50:10;;;;;;;3.80;3.37;;;39.70;1.00;;;;;;5086026;28;20439;-79
2022/08/09 10:53:34;;;;;;;3.77;3.10;;;39.90;1.00;;;;;;5085955;28;21149;-80
2022/08/09 10:56:30;;;;;;;3.10;2.80;;;40.20;1.00;;;;;;5080439;28;20520;-77
2022/08/09 10:59:00;;;;;;;4.63;3.60;;;40.60;1.00;;;;;;5089120;27;21277;-79
2022/08/09 11:01:40;;;;;;;3.17;2.87;;;40.20;1.00;;;;;;5088370;27;20463;-81
2022/08/09 11:04:25;;;;;;;3.80;3.00;;;40.30;1.00;;;;;;5085200;27;20395;-81
2022/08/09 11:07:32;;;;;;;3.23;3.03;;;40.60;1.00;;;;;;5086925;28;20488;-80
2022/08/09 11:09:59;;;;;;;4.07;3.43;;;41.40;1.00;;;;;;5088536;27;20493;-82
2022/08/09 11:12:36;;;;;;;3.63;3.00;;;41.70;1.00;;;;;;5083689;28;20492;-78
2022/08/09 11:15:25;;;;;;;4.57;3.00;;;41.80;1.00;;;;;;5089272;27;20569;-79
2022/08/09 11:17:59;;;;;;;4.50;3.40;;;40.30;1.00;;;;;;5082165;27;20466;-80
2022/08/09 11:20:46;;;;;;;4.23;3.80;;;38.40;1.00;;;;;;5087388;27;20435;-81
2022/08/09 11:23:23;;;;;;;4.93;3.40;;;38.30;1.00;;;;;;5085823;28;20482;-78
2022/08/09 11:25:50;;;;;;;3.87;3.53;;;38.90;1.00;;;;;;5086822;27;20466;-79
2022/08/09 11:28:47;;;;;;;3.53;3.23;;;39.70;1.00;;;;;;5082866;27;20553;-82
2022/08/09 11:31:47;;;;;;;4.50;3.23;;;40.70;1.00;;;;;;5085402;27;20429;-81
2022/08/09 11:34:32;;;;;;;3.60;3.30;;;41.90;1.00;;;;;;5069435;28;20529;-80
2022/08/09 11:37:00;;;;;;;6.53;3.40;;;41.90;1.00;;;;;;5083432;28;20463;-79
2022/08/09 11:40:00;;;;;;;5.17;3.70;;;42.30;1.00;;;;;;5084114;27;20613;-80
2022/08/09 11:42:50;;;;;;;3.33;2.93;;;42.70;1.00;;;;;;5081842;28;20471;-81
2022/08/09 11:45:29;;;;;;;3.30;3.00;;;43.50;1.00;;;;;;5081816;28;20469;-81
2022/08/09 11:47:59;;;;;;;3.33;3.13;;;43.60;1.00;;;;;;5084262;27;20465;-80
2022/08/09 11:50:55;;;;;;;4.17;2.60;;;43.60;1.00;;;;;;5087035;27;20445;-82
2022/08/09 11:53:31;;;;;;;4.13;3.77;;;43.10;1.00;;;;;;5062154;27;21251;-80
2022/08/09 11:56:00;;;;;;;3.60;3.30;;;40.60;1.00;;;;;;5083910;27;21339;-78
2022/08/09 11:58:50;;;;;;;4.70;3.90;;;38.20;1.00;;;;;;5085437;28;20629;-78
2022/08/09 12:01:37;;;;;;;3.40;3.13;;;36.20;1.00;;;;;;5069549;28;20454;-78
2022/08/09 12:04:13;;;;;;;5.10;3.60;;;34.90;1.00;;;;;;5089276;28;20434;-80
2022/08/09 12:06:51;;;;;;;5.93;4.10;;;34.10;1.00;;;;;;5091858;28;20431;-80
2022/08/09 12:09:29;;;;;;;4.93;3.73;;;33.40;1.00;;;;;;5088441;28;20462;-79
2022/08/09 12:12:04;;;;;;;4.40;3.43;;;32.70;1.00;;;;;;5082285;27;20442;-79
2022/08/09 12:17:23;;;;;;;5.70;3.30;;;31.80;1.00;;;;;;5013306;28;20434;-82
2022/08/09 12:19:53;;;;;;;3.50;3.20;;;31.50;1.00;;;;;;5032313;28;20421;-78
2022/08/09 12:22:24;;;;;;;4.97;4.40;;;31.80;1.00;;;;;;5085962;28;20513;-78
2022/08/09 12:25:12;;;;;;;3.80;3.50;;;33.70;1.00;;;;;;5086603;28;20467;-79
2022/08/09 12:27:40;;;;;;;3.30;3.00;;;36.50;1.00;;;;;;5076342;28;20562;-80
2022/08/09 12:30:12;;;;;;;4.23;3.83;;;38.90;1.00;;;;;;5083118;27;20451;-81
2022/08/09 12:32:41;;;;;;;4.30;3.63;;;39.20;1.00;;;;;;5080010;28;20443;-81
2022/08/09 12:35:12;;;;;;;4.63;3.70;;;38.10;1.00;;;;;;5074847;27;20450;-80
2022/08/09 12:37:40;;;;;;;4.00;2.97;;;36.80;1.00;;;;;;5079888;28;20914;-80
2022/08/09 12:40:21;;;;;;;5.00;4.30;;;35.50;1.00;;;;;;5082425;27;20461;-80
2022/08/09 12:42:59;;;;;;;5.03;3.70;;;34.40;1.00;;;;;;5077147;28;20414;-80
2022/08/09 12:45:27;;;;;;;3.57;3.23;;;33.60;1.00;;;;;;5088451;28;20442;-78
2022/08/09 12:47:56;;;;;;;3.57;3.27;;;33.10;1.00;;;;;;5079629;28;21396;-80
2022/08/09 12:50:24;;;;;;;3.63;3.33;;;32.80;1.00;;;;;;5074664;28;20483;-78
2022/08/09 12:52:53;;;;;;;3.27;2.97;;;32.60;1.00;;;;;;5082490;28;20434;-79
2022/08/09 12:55:35;;;;;;;3.70;3.33;;;32.50;1.00;;;;;;5086421;28;20455;-79
2022/08/09 12:58:12;;;;;;;5.40;3.70;;;32.40;1.00;;;;;;5079877;28;20921;-79
2022/08/09 13:00:43;;;;;;;3.30;3.10;;;32.50;1.00;;;;;;5082849;28;20443;-80
2022/08/09 13:03:14;;;;;;;6.37;3.97;;;33.40;1.00;;;;;;5086166;28;20545;-79
2022/08/09 13:05:42;;;;;;;3.53;3.20;;;35.90;1.00;;;;;;5081877;28;20550;-81
2022/08/09 13:08:10;;;;;;;3.30;2.73;;;38.10;1.00;;;;;;5074508;27;20505;-81
2022/08/09 13:10:49;;;;;;;3.87;2.77;;;40.20;1.00;;;;;;5098910;27;20428;-81
2022/08/09 13:13:32;;;;;;;3.70;3.40;;;41.80;1.00;;;;;;5083328;28;20459;-81
2022/08/09 13:16:02;;;;;;;2.67;2.47;;;42.70;1.00;;;;;;5057930;28;21106;-81
2022/08/09 13:18:47;;;;;;;2.77;2.57;;;42.80;1.00;;;;;;5056500;28;20458;-79
2022/08/09 13:21:33;;;;;;;4.87;3.93;;;43.30;1.00;;;;;;5061621;28;20946;-81
2022/08/09 13:24:07;;;;;;;3.00;2.70;;;43.70;1.00;;;;;;5055603;28;20486;-80
2022/08/09 13:26:42;;;;;;;4.90;3.13;;;44.50;1.00;;;;;;5068327;27;20600;-81
2022/08/09 13:29:16;;;;;;;2.50;2.30;;;45.10;1.00;;;;;;5098142;27;20410;-80